createdAt,value
2022-08-31T00:01:52.458Z,98588.00
2022-08-31T00:04:41.470Z,98580.00
2022-08-31T00:07:31.737Z,98583.00
2022-08-31T00:10:31.914Z,98588.00
2022-08-31T00:13:26.667Z,98584.00
2022-08-31T00:16:14.221Z,98584.00
2022-08-31T00:19:02.070Z,98571.00
2022-08-31T00:21:49.737Z,98581.00
2022-08-31T00:24:37.203Z,98587.00
2022-08-31T00:27:24.772Z,98583.00
2022-08-31T00:30:13.724Z,98584.00
2022-08-31T00:33:02.034Z,98583.00
2022-08-31T00:35:49.632Z,98588.00
2022-08-31T00:38:38.012Z,98595.00
2022-08-31T00:41:31.300Z,98598.00
2022-08-31T00:44:19.012Z,98584.00
2022-08-31T00:47:06.908Z,98588.00
2022-08-31T00:49:54.712Z,98588.00
2022-08-31T00:52:48.489Z,98586.00
2022-08-31T00:55:38.115Z,98584.00
2022-08-31T00:58:26.513Z,98589.00
2022-08-31T01:01:15.192Z,98585.00
2022-08-31T01:04:03.647Z,98589.00
2022-08-31T01:06:52.827Z,98589.00
2022-08-31T01:09:45.072Z,98589.00
2022-08-31T01:12:47.137Z,98589.00
2022-08-31T01:15:37.158Z,98582.00
2022-08-31T01:18:25.071Z,98590.00
2022-08-31T01:21:45.994Z,98590.00
2022-08-31T01:24:35.556Z,98582.00
2022-08-31T01:27:29.338Z,98583.00
2022-08-31T01:30:26.097Z,98587.00
2022-08-31T01:33:13.693Z,98593.00
2022-08-31T01:36:01.412Z,98594.00
2022-08-31T01:38:51.100Z,98597.00
2022-08-31T01:41:44.147Z,98602.00
2022-08-31T01:44:31.710Z,98597.00
2022-08-31T01:47:19.432Z,98596.00
2022-08-31T01:50:09.763Z,98596.00
2022-08-31T01:52:57.258Z,98594.00
2022-08-31T01:55:45.173Z,98593.00
2022-08-31T01:58:32.782Z,98579.00
2022-08-31T02:01:33.660Z,98588.00
2022-08-31T02:04:26.924Z,98582.00
2022-08-31T02:07:14.484Z,98575.00
2022-08-31T02:10:02.137Z,98577.00
2022-08-31T02:12:49.970Z,98576.00
2022-08-31T02:15:39.157Z,98570.00
2022-08-31T02:18:28.004Z,98569.00
2022-08-31T02:21:15.632Z,98571.00
2022-08-31T02:24:04.656Z,98576.00
2022-08-31T02:26:53.968Z,98573.00
2022-08-31T02:29:41.660Z,98568.00
2022-08-31T02:32:29.146Z,98567.00
2022-08-31T02:35:16.715Z,98563.00
2022-08-31T02:38:05.801Z,98560.00
2022-08-31T02:40:53.558Z,98561.00
2022-08-31T02:43:41.095Z,98554.00
2022-08-31T02:46:28.646Z,98562.00
2022-08-31T02:49:16.354Z,98559.00
2022-08-31T02:52:05.494Z,98562.00
2022-08-31T02:54:53.037Z,98564.00
2022-08-31T02:57:40.532Z,98560.00
2022-08-31T03:00:31.293Z,98558.00
2022-08-31T03:03:22.193Z,98562.00
2022-08-31T03:06:09.703Z,98554.00
2022-08-31T03:08:57.597Z,98561.00
2022-08-31T03:11:45.897Z,98559.00
2022-08-31T03:14:33.474Z,98559.00
2022-08-31T03:17:21.079Z,98561.00
2022-08-31T03:20:11.762Z,98567.00
2022-08-31T03:22:59.569Z,98569.00
2022-08-31T03:25:48.082Z,98575.00
2022-08-31T03:28:38.388Z,98572.00
2022-08-31T03:31:27.513Z,98566.00
2022-08-31T03:34:15.933Z,98573.00
2022-08-31T03:37:04.297Z,98564.00
2022-08-31T03:39:51.958Z,98568.00
2022-08-31T03:42:40.395Z,98567.00
2022-08-31T03:45:28.247Z,98576.00
2022-08-31T03:48:16.747Z,98572.00
2022-08-31T03:51:04.398Z,98569.00
2022-08-31T03:53:51.952Z,98566.00
2022-08-31T03:56:40.347Z,98563.00
2022-08-31T03:59:28.102Z,98564.00
2022-08-31T04:02:15.629Z,98571.00
2022-08-31T04:05:03.227Z,98565.00
2022-08-31T04:07:50.746Z,98569.00
2022-08-31T04:10:44.391Z,98564.00
2022-08-31T04:13:31.879Z,98574.00
2022-08-31T04:16:22.845Z,98573.00
2022-08-31T04:19:11.593Z,98573.00
2022-08-31T04:21:59.092Z,98576.00
2022-08-31T04:24:46.532Z,98585.00
2022-08-31T04:27:34.482Z,98577.00
2022-08-31T04:30:21.994Z,98582.00
2022-08-31T04:33:12.460Z,98572.00
2022-08-31T04:36:00.038Z,98572.00
2022-08-31T04:38:51.456Z,98580.00
2022-08-31T04:41:41.646Z,98574.00
2022-08-31T04:44:29.282Z,98587.00
2022-08-31T04:47:16.794Z,98583.00
2022-08-31T04:50:04.828Z,98590.00
2022-08-31T04:53:03.350Z,98595.00
2022-08-31T04:55:51.467Z,98591.00
2022-08-31T04:58:38.987Z,98593.00
2022-08-31T05:01:42.988Z,98593.00
2022-08-31T05:04:32.047Z,98592.00
2022-08-31T05:07:19.548Z,98600.00
2022-08-31T05:10:07.833Z,98602.00
2022-08-31T05:12:55.348Z,98605.00
2022-08-31T05:15:45.077Z,98606.00
2022-08-31T05:18:33.128Z,98610.00
2022-08-31T05:21:28.412Z,98612.00
2022-08-31T05:24:23.154Z,98612.00
2022-08-31T05:27:12.367Z,98611.00
2022-08-31T05:29:59.879Z,98619.00
2022-08-31T05:32:47.603Z,98609.00
2022-08-31T05:35:35.668Z,98621.00
2022-08-31T05:38:23.193Z,98618.00
2022-08-31T05:41:11.552Z,98615.00
2022-08-31T05:43:59.078Z,98619.00
2022-08-31T05:46:52.270Z,98619.00
2022-08-31T05:49:48.872Z,98622.00
2022-08-31T05:52:36.412Z,98619.00
2022-08-31T05:55:23.907Z,98623.00
2022-08-31T05:58:12.312Z,98619.00
2022-08-31T06:01:01.569Z,98618.00
2022-08-31T06:03:50.433Z,98610.00
2022-08-31T06:06:38.677Z,98620.00
2022-08-31T06:09:26.688Z,98617.00
2022-08-31T06:12:15.414Z,98616.00
2022-08-31T06:15:05.127Z,98617.00
2022-08-31T06:17:52.817Z,98621.00
2022-08-31T06:20:40.577Z,98621.00
2022-08-31T06:23:28.892Z,98636.00
2022-08-31T06:26:21.412Z,98629.00
2022-08-31T06:29:09.684Z,98628.00
2022-08-31T06:31:57.476Z,98636.00
2022-08-31T06:34:44.968Z,98626.00
2022-08-31T06:37:32.468Z,98621.00
2022-08-31T06:40:20.161Z,98624.00
2022-08-31T06:43:08.122Z,98635.00
2022-08-31T06:45:58.484Z,98639.00
2022-08-31T06:48:46.534Z,98635.00
2022-08-31T06:51:36.853Z,98639.00
2022-08-31T06:54:31.898Z,98633.00
2022-08-31T06:57:19.877Z,98640.00
2022-08-31T07:00:08.454Z,98633.00
2022-08-31T07:02:57.627Z,98636.00
2022-08-31T07:05:45.517Z,98640.00
2022-08-31T07:08:33.104Z,98636.00
2022-08-31T07:11:24.088Z,98643.00
2022-08-31T07:14:16.702Z,98636.00
2022-08-31T07:17:04.581Z,98632.00
2022-08-31T07:19:52.192Z,98638.00
2022-08-31T07:22:39.673Z,98639.00
2022-08-31T07:25:27.252Z,98646.00
2022-08-31T07:28:14.898Z,98652.00
2022-08-31T07:31:05.896Z,98653.00
2022-08-31T07:33:56.782Z,98656.00
2022-08-31T07:37:11.267Z,98654.00
2022-08-31T07:40:17.312Z,98654.00
2022-08-31T07:43:05.009Z,98652.00
2022-08-31T07:45:54.354Z,98656.00
2022-08-31T07:48:42.473Z,98655.00
2022-08-31T07:51:30.947Z,98648.00
2022-08-31T07:54:28.353Z,98651.00
2022-08-31T07:57:16.508Z,98652.00
2022-08-31T08:00:09.435Z,98656.00
2022-08-31T08:03:07.901Z,98656.00
2022-08-31T08:05:56.035Z,98651.00
2022-08-31T08:08:44.772Z,98660.00
2022-08-31T08:11:34.053Z,98652.00
2022-08-31T08:14:23.036Z,98653.00
2022-08-31T08:17:12.967Z,98659.00
2022-08-31T08:20:00.898Z,98652.00
2022-08-31T08:22:55.161Z,98656.00
2022-08-31T08:25:45.178Z,98656.00
2022-08-31T08:28:41.086Z,98666.00
2022-08-31T08:31:29.142Z,98654.00
2022-08-31T08:34:17.853Z,98665.00
2022-08-31T08:37:08.193Z,98664.00
2022-08-31T08:39:56.092Z,98670.00
2022-08-31T08:42:44.267Z,98675.00
2022-08-31T08:45:33.534Z,98668.00
2022-08-31T08:48:30.455Z,98678.00
2022-08-31T08:51:25.364Z,98688.00
2022-08-31T08:54:25.299Z,98693.00
2022-08-31T08:57:31.327Z,98696.00
2022-08-31T09:00:25.161Z,98697.00
2022-08-31T09:03:44.605Z,98697.00
2022-08-31T09:06:45.399Z,98699.00
2022-08-31T09:09:47.677Z,98701.00
2022-08-31T09:13:23.611Z,98708.00
2022-08-31T09:16:29.148Z,98707.00
2022-08-31T09:19:20.189Z,98714.00
2022-08-31T09:22:07.847Z,98710.00
2022-08-31T09:24:59.785Z,98713.00
2022-08-31T09:27:58.647Z,98722.00
2022-08-31T09:30:46.508Z,98719.00
2022-08-31T09:33:47.319Z,98720.00
2022-08-31T09:36:41.247Z,98717.00
2022-08-31T09:39:33.099Z,98721.00
2022-08-31T09:42:34.022Z,98728.00
2022-08-31T09:45:30.170Z,98729.00
2022-08-31T09:48:45.527Z,98734.00
2022-08-31T09:51:39.393Z,98731.00
2022-08-31T09:54:47.347Z,98729.00
2022-08-31T09:57:59.883Z,98738.00
2022-08-31T10:00:48.062Z,98738.00
2022-08-31T10:03:39.006Z,98734.00
2022-08-31T10:06:41.853Z,98751.00
2022-08-31T10:09:58.957Z,98745.00
2022-08-31T10:12:58.268Z,98754.00
2022-08-31T10:16:30.733Z,98759.00
2022-08-31T10:19:56.917Z,98751.00
2022-08-31T10:22:53.669Z,98750.00
2022-08-31T10:25:52.642Z,98764.00
2022-08-31T10:29:17.904Z,98758.00
2022-08-31T10:32:36.173Z,98757.00
2022-08-31T10:35:52.093Z,98756.00
2022-08-31T10:38:47.576Z,98759.00
2022-08-31T10:41:44.239Z,98767.00
2022-08-31T10:44:57.214Z,98759.00
2022-08-31T10:47:52.687Z,98768.00
2022-08-31T10:51:23.102Z,98768.00
2022-08-31T10:54:33.222Z,98765.00
2022-08-31T10:57:54.948Z,98767.00
2022-08-31T11:01:17.103Z,98771.00
2022-08-31T11:04:36.736Z,98761.00
2022-08-31T11:07:53.428Z,98767.00
2022-08-31T11:10:51.992Z,98761.00
2022-08-31T11:15:03.283Z,98769.00
2022-08-31T11:18:40.093Z,98766.00
2022-08-31T11:22:17.798Z,98772.00
2022-08-31T11:25:56.053Z,98777.00
2022-08-31T11:29:02.277Z,98778.00
2022-08-31T11:31:51.017Z,98779.00
2022-08-31T11:34:56.747Z,98777.00
2022-08-31T11:37:52.960Z,98770.00
2022-08-31T11:40:44.101Z,98776.00
2022-08-31T11:43:31.683Z,98773.00
2022-08-31T11:46:28.756Z,98769.00
2022-08-31T11:49:37.190Z,98778.00
2022-08-31T11:52:48.559Z,98780.00
2022-08-31T11:55:49.813Z,98774.00
2022-08-31T11:58:42.358Z,98784.00
2022-08-31T12:01:35.912Z,98792.00
2022-08-31T12:04:46.301Z,98799.00
2022-08-31T12:07:36.988Z,98804.00
2022-08-31T12:11:02.063Z,98806.00
2022-08-31T12:14:12.149Z,98811.00
2022-08-31T12:17:27.868Z,98810.00
2022-08-31T12:20:26.672Z,98805.00
2022-08-31T12:23:37.803Z,98806.00
2022-08-31T12:26:53.677Z,98811.00
2022-08-31T12:29:42.367Z,98806.00
2022-08-31T12:32:40.533Z,98803.00
2022-08-31T12:35:31.969Z,98802.00
2022-08-31T12:38:23.920Z,98806.00
2022-08-31T12:41:14.578Z,98808.00
2022-08-31T12:44:03.780Z,98815.00
2022-08-31T12:47:04.813Z,98813.00
2022-08-31T12:50:33.453Z,98811.00
2022-08-31T12:53:54.277Z,98821.00
2022-08-31T12:57:18.270Z,98813.00
2022-08-31T13:00:43.949Z,98816.00
2022-08-31T13:03:31.958Z,98811.00
2022-08-31T13:06:33.718Z,98808.00
2022-08-31T13:09:35.646Z,98812.00
2022-08-31T13:12:24.677Z,98817.00
2022-08-31T13:15:29.487Z,98808.00
2022-08-31T13:18:23.769Z,98814.00
2022-08-31T13:21:11.983Z,98815.00
2022-08-31T13:24:10.914Z,98819.00
2022-08-31T13:27:27.738Z,98811.00
2022-08-31T13:30:20.673Z,98804.00
2022-08-31T13:33:33.132Z,98819.00
2022-08-31T13:36:44.298Z,98814.00
2022-08-31T13:39:44.860Z,98814.00
2022-08-31T13:42:57.223Z,98816.00
2022-08-31T13:45:59.094Z,98810.00
2022-08-31T13:48:54.067Z,98818.00
2022-08-31T13:51:46.689Z,98816.00
2022-08-31T13:54:36.792Z,98809.00
2022-08-31T13:57:28.450Z,98806.00
2022-08-31T14:01:23.989Z,98809.00
2022-08-31T14:04:44.405Z,98804.00
2022-08-31T14:07:45.862Z,98812.00
2022-08-31T14:10:46.508Z,98811.00
2022-08-31T14:13:37.197Z,98811.00
2022-08-31T14:16:35.939Z,98812.00
2022-08-31T14:19:32.372Z,98812.00
2022-08-31T14:22:33.412Z,98802.00
2022-08-31T14:25:22.187Z,98811.00
2022-08-31T14:28:09.949Z,98807.00
2022-08-31T14:31:01.719Z,98815.00
2022-08-31T14:34:31.188Z,98809.00
2022-08-31T14:37:20.319Z,98808.00
2022-08-31T14:40:09.471Z,98819.00
2022-08-31T14:42:57.263Z,98814.00
2022-08-31T14:45:44.841Z,98826.00
2022-08-31T14:48:34.128Z,98812.00
2022-08-31T14:51:22.503Z,98813.00
2022-08-31T14:54:11.534Z,98812.00
2022-08-31T14:56:59.548Z,98813.00
2022-08-31T14:59:47.347Z,98812.00
2022-08-31T15:02:36.661Z,98814.00
2022-08-31T15:05:26.015Z,98814.00
2022-08-31T15:08:19.910Z,98818.00
2022-08-31T15:11:11.202Z,98819.00
2022-08-31T15:13:58.647Z,98816.00
2022-08-31T15:16:50.942Z,98822.00
2022-08-31T15:19:40.832Z,98824.00
2022-08-31T15:22:28.442Z,98823.00
2022-08-31T15:25:17.131Z,98829.00
2022-08-31T15:28:04.781Z,98825.00
2022-08-31T15:30:52.292Z,98824.00
2022-08-31T15:33:41.457Z,98821.00
2022-08-31T15:36:29.507Z,98825.00
2022-08-31T15:39:16.977Z,98818.00
2022-08-31T15:42:09.317Z,98815.00
2022-08-31T15:44:57.648Z,98818.00
2022-08-31T15:48:03.869Z,98816.00
2022-08-31T15:51:00.427Z,98812.00
2022-08-31T15:54:06.456Z,98807.00
2022-08-31T15:57:00.878Z,98811.00
2022-08-31T15:59:50.094Z,98803.00
2022-08-31T16:02:37.702Z,98805.00
2022-08-31T16:05:35.930Z,98800.00
2022-08-31T16:08:28.527Z,98794.00
2022-08-31T16:11:16.179Z,98796.00
2022-08-31T16:14:05.412Z,98798.00
2022-08-31T16:16:53.027Z,98802.00
2022-08-31T16:19:41.190Z,98795.00
2022-08-31T16:22:30.723Z,98798.00
2022-08-31T16:25:20.434Z,98796.00
2022-08-31T16:28:08.158Z,98792.00
2022-08-31T16:30:55.877Z,98791.00
2022-08-31T16:33:44.727Z,98787.00
2022-08-31T16:36:34.647Z,98785.00
2022-08-31T16:39:25.292Z,98788.00
2022-08-31T16:42:16.572Z,98786.00
2022-08-31T16:45:04.733Z,98783.00
2022-08-31T16:48:12.195Z,98787.00
2022-08-31T16:51:02.938Z,98787.00
2022-08-31T16:53:52.552Z,98791.00
2022-08-31T16:56:42.268Z,98793.00
2022-08-31T16:59:38.163Z,98793.00
2022-08-31T17:02:27.045Z,98791.00
2022-08-31T17:05:14.578Z,98793.00
2022-08-31T17:08:02.827Z,98792.00
2022-08-31T17:10:51.417Z,98795.00
2022-08-31T17:13:40.087Z,98784.00
2022-08-31T17:16:35.023Z,98793.00
2022-08-31T17:19:24.161Z,98794.00
2022-08-31T17:22:23.305Z,98803.00
2022-08-31T17:25:13.263Z,98800.00
2022-08-31T17:28:07.610Z,98800.00
2022-08-31T17:30:56.661Z,98808.00
2022-08-31T17:33:44.151Z,98812.00
2022-08-31T17:36:37.449Z,98806.00
2022-08-31T17:39:26.887Z,98810.00
2022-08-31T17:42:21.059Z,98808.00
2022-08-31T17:45:09.902Z,98815.00
2022-08-31T17:47:57.479Z,98810.00
2022-08-31T17:50:45.142Z,98822.00
2022-08-31T17:53:34.248Z,98823.00
2022-08-31T17:56:24.978Z,98827.00
2022-08-31T17:59:26.827Z,98831.00
2022-08-31T18:02:21.238Z,98829.00
2022-08-31T18:05:11.990Z,98833.00
2022-08-31T18:08:00.771Z,98836.00
2022-08-31T18:10:53.701Z,98835.00
2022-08-31T18:13:41.747Z,98840.00
2022-08-31T18:16:30.178Z,98839.00
2022-08-31T18:19:25.501Z,98843.00
2022-08-31T18:22:16.806Z,98849.00
2022-08-31T18:25:04.928Z,98858.00
2022-08-31T18:27:52.443Z,98854.00
2022-08-31T18:30:41.240Z,98865.00
2022-08-31T18:33:29.032Z,98869.00
2022-08-31T18:36:23.134Z,98864.00
2022-08-31T18:39:29.432Z,98867.00
2022-08-31T18:42:44.632Z,98869.00
2022-08-31T18:45:32.136Z,98871.00
2022-08-31T18:48:26.181Z,98870.00
2022-08-31T18:51:17.674Z,98869.00
2022-08-31T18:54:07.298Z,98873.00
2022-08-31T18:56:55.452Z,98878.00
2022-08-31T18:59:43.437Z,98873.00
2022-08-31T19:02:32.471Z,98875.00
2022-08-31T19:05:20.654Z,98877.00
2022-08-31T19:08:08.322Z,98877.00
2022-08-31T19:10:58.150Z,98882.00
2022-08-31T19:13:50.748Z,98873.00
2022-08-31T19:16:38.943Z,98874.00
2022-08-31T19:19:28.609Z,98876.00
2022-08-31T19:22:18.523Z,98870.00
2022-08-31T19:25:10.057Z,98877.00
2022-08-31T19:28:01.340Z,98878.00
2022-08-31T19:30:48.958Z,98886.00
2022-08-31T19:33:36.507Z,98882.00
2022-08-31T19:36:24.493Z,98886.00
2022-08-31T19:39:16.857Z,98895.00
2022-08-31T19:42:08.032Z,98893.00
2022-08-31T19:45:22.750Z,98889.00
2022-08-31T19:48:05.582Z,98885.00
2022-08-31T19:50:53.553Z,98891.00
2022-08-31T19:53:45.204Z,98894.00
2022-08-31T19:56:32.738Z,98896.00
2022-08-31T19:59:23.857Z,98891.00
2022-08-31T20:02:12.165Z,98901.00
2022-08-31T20:04:59.784Z,98901.00
2022-08-31T20:07:47.328Z,98886.00
2022-08-31T20:10:34.857Z,98897.00
2022-08-31T20:13:24.326Z,98887.00
2022-08-31T20:16:13.423Z,98890.00
2022-08-31T20:19:04.280Z,98889.00
2022-08-31T20:21:55.648Z,98884.00
2022-08-31T20:24:45.241Z,98884.00
2022-08-31T20:27:37.810Z,98895.00
2022-08-31T20:30:25.421Z,98895.00
2022-08-31T20:33:13.007Z,98898.00
2022-08-31T20:36:01.428Z,98890.00
2022-08-31T20:38:57.537Z,98892.00
2022-08-31T20:41:53.732Z,98893.00
2022-08-31T20:44:48.963Z,98885.00
2022-08-31T20:47:55.397Z,98892.00
2022-08-31T20:50:48.692Z,98890.00
2022-08-31T20:53:42.669Z,98889.00
2022-08-31T20:56:30.958Z,98892.00
2022-08-31T20:59:23.522Z,98891.00
2022-08-31T21:02:12.502Z,98895.00
2022-08-31T21:05:15.236Z,98893.00
2022-08-31T21:08:09.347Z,98882.00
2022-08-31T21:10:56.876Z,98882.00
2022-08-31T21:13:46.996Z,98882.00
2022-08-31T21:16:35.940Z,98890.00
2022-08-31T21:19:26.537Z,98886.00
2022-08-31T21:22:17.353Z,98884.00
2022-08-31T21:25:12.696Z,98878.00
2022-08-31T21:28:00.272Z,98885.00
2022-08-31T21:30:50.375Z,98882.00
2022-08-31T21:33:38.069Z,98873.00
2022-08-31T21:36:26.969Z,98884.00
2022-08-31T21:39:20.308Z,98883.00
2022-08-31T21:42:08.012Z,98876.00
2022-08-31T21:44:55.517Z,98877.00
2022-08-31T21:47:43.432Z,98879.00
2022-08-31T21:50:30.943Z,98882.00
2022-08-31T21:53:18.590Z,98874.00
2022-08-31T21:56:06.631Z,98870.00
2022-08-31T21:58:55.917Z,98870.00
2022-08-31T22:01:44.268Z,98872.00
2022-08-31T22:04:36.003Z,98874.00
2022-08-31T22:07:23.558Z,98868.00
2022-08-31T22:10:12.267Z,98882.00
2022-08-31T22:13:00.601Z,98881.00
2022-08-31T22:15:48.285Z,98880.00
2022-08-31T22:21:53.008Z,98885.00
2022-08-31T22:24:42.174Z,98885.00
2022-08-31T22:27:30.013Z,98878.00
2022-08-31T22:30:20.213Z,98885.00
2022-08-31T22:33:07.912Z,98882.00
2022-08-31T22:35:55.686Z,98879.00
2022-08-31T22:38:44.614Z,98882.00
2022-08-31T22:41:35.557Z,98884.00
2022-08-31T22:44:28.812Z,98881.00
2022-08-31T22:47:16.328Z,98882.00
2022-08-31T22:50:05.128Z,98872.00
2022-08-31T22:52:52.777Z,98874.00
2022-08-31T22:55:41.328Z,98870.00
2022-08-31T22:58:29.542Z,98867.00
2022-08-31T23:01:24.700Z,98863.00
2022-08-31T23:04:20.415Z,98865.00
2022-08-31T23:07:09.528Z,98871.00
2022-08-31T23:09:57.819Z,98871.00
2022-08-31T23:12:51.725Z,98859.00
2022-08-31T23:15:43.651Z,98859.00
2022-08-31T23:18:31.352Z,98867.00
2022-08-31T23:21:19.832Z,98857.00
2022-08-31T23:24:07.672Z,98855.00
2022-08-31T23:27:01.665Z,98857.00
2022-08-31T23:29:58.131Z,98854.00
2022-08-31T23:32:49.003Z,98853.00
2022-08-31T23:35:36.560Z,98852.00
2022-08-31T23:38:26.978Z,98847.00
2022-08-31T23:41:14.538Z,98847.00
2022-08-31T23:44:07.873Z,98843.00
2022-08-31T23:46:57.339Z,98850.00
2022-08-31T23:49:46.055Z,98842.00
2022-08-31T23:52:37.902Z,98848.00
2022-08-31T23:55:29.059Z,98845.00
2022-08-31T23:58:17.623Z,98840.00
